Time;durP1;ratioP1;P1;durP2;ratioP2;P2;SDS_P1;SDS_P2;PMS_P1;PMS_P2;Temp;Humidity;BMP_temperature;BMP_pressure;BME280_temperature;BME280_humidity;BME280_pressure;Samples;Min_cycle;Max_cycle;Signal;HPM_P1;HPM_P2
2021/01/29 00:00:58;;;;;;;7.50;2.65;;;;;;;-0.60;74.36;98713.14;1738174;80;21619;-65
2021/01/29 00:03:27;;;;;;;5.05;1.95;;;;;;;-0.61;75.25;98703.72;1763244;79;21671;-64
2021/01/29 00:05:58;;;;;;;5.70;1.67;;;;;;;-0.65;75.10;98698.38;1761759;80;21165;-64
2021/01/29 00:08:26;;;;;;;5.92;2.17;;;;;;;-0.65;75.34;98707.42;1760723;80;21215;-67
2021/01/29 00:10:54;;;;;;;5.30;1.90;;;;;;;-0.66;75.40;98707.52;1762063;79;21184;-66
2021/01/29 00:13:22;;;;;;;4.30;1.50;;;;;;;-0.66;75.12;98700.59;1761078;79;21588;-66
2021/01/29 00:15:50;;;;;;;8.40;2.83;;;;;;;-0.66;74.85;98709.62;1760794;80;21629;-68
2021/01/29 00:18:18;;;;;;;4.72;2.02;;;;;;;-0.67;74.63;98688.61;1763455;80;21197;-66
2021/01/29 00:20:46;;;;;;;4.60;1.87;;;;;;;-0.62;74.44;98702.55;1734714;80;21196;-66
2021/01/29 00:23:15;;;;;;;4.53;1.67;;;;;;;-0.67;73.52;98700.23;1735522;80;21212;-67
2021/01/29 00:25:46;;;;;;;9.20;3.25;;;;;;;-0.69;73.89;98693.48;1761603;80;21199;-67
2021/01/29 00:28:15;;;;;;;4.17;1.72;;;;;;;-0.73;74.36;98696.72;1706908;82;21201;-69
2021/01/29 00:30:42;;;;;;;6.28;2.20;;;;;;;-0.73;73.27;98695.91;1735440;80;21605;-66
2021/01/29 00:33:13;;;;;;;4.72;1.40;;;;;;;-0.74;72.94;98697.63;1763132;80;22876;-66
2021/01/29 00:35:40;;;;;;;4.62;2.02;;;;;;;-0.78;71.87;98684.55;1761231;80;21172;-66
2021/01/29 00:38:08;;;;;;;4.05;1.70;;;;;;;-0.79;72.76;98682.87;1762326;80;21236;-64
2021/01/29 00:40:35;;;;;;;5.20;2.20;;;;;;;-0.79;72.17;98682.87;1761561;80;21219;-66
2021/01/29 00:43:04;;;;;;;5.08;2.20;;;;;;;-0.76;72.67;98680.11;1764128;80;21505;-66
2021/01/29 00:45:34;;;;;;;4.62;1.62;;;;;;;-0.80;71.72;98679.48;1762123;80;21392;-65
2021/01/29 00:48:01;;;;;;;4.75;1.95;;;;;;;-0.81;72.00;98675.69;1761542;79;21251;-67
2021/01/29 00:50:30;;;;;;;4.90;2.00;;;;;;;-0.85;71.73;98675.52;1763037;79;21530;-64
2021/01/29 00:52:58;;;;;;;5.20;1.70;;;;;;;-0.90;72.78;98690.47;1764316;80;21176;-68
2021/01/29 00:55:25;;;;;;;5.70;2.00;;;;;;;-1.03;73.29;98688.59;1763790;80;21184;-66
2021/01/29 00:57:58;;;;;;;4.05;1.60;;;;;;;-1.09;74.07;98673.93;1764022;80;22152;-70
2021/01/29 01:00:30;;;;;;;5.00;1.45;;;;;;;-1.09;74.75;98679.09;1758171;80;21647;-67
2021/01/29 01:02:59;;;;;;;3.90;1.37;;;;;;;-1.13;74.80;98679.73;1763175;79;21223;-66
2021/01/29 01:05:27;;;;;;;4.95;1.55;;;;;;;-1.19;74.62;98682.23;1762438;80;21141;-65
2021/01/29 01:07:56;;;;;;;4.97;1.65;;;;;;;-1.20;75.23;98671.53;1761678;80;21247;-67
2021/01/29 01:10:37;;;;;;;4.03;1.45;;;;;;;-1.17;75.85;98667.95;1796231;77;22709;-66
2021/01/29 01:13:24;;;;;;;2.90;1.20;;;;;;;-1.20;74.91;98670.23;1776154;78;21120;-67
2021/01/29 01:16:03;;;;;;;3.83;1.32;;;;;;;-1.20;75.08;98673.29;1684384;84;22160;-70
2021/01/29 01:18:31;;;;;;;4.30;1.62;;;;;;;-1.23;75.13;98676.05;1747309;78;21223;-71
2021/01/29 01:21:00;;;;;;;4.47;1.47;;;;;;;-1.24;76.23;98666.66;1777331;78;21136;-68
2021/01/29 01:23:28;;;;;;;4.08;1.60;;;;;;;-1.26;75.54;98681.38;1744671;78;21650;-69
2021/01/29 01:25:55;;;;;;;4.90;1.77;;;;;;;-1.27;75.96;98674.58;1777577;78;21194;-67
2021/01/29 01:28:25;;;;;;;14.95;1.95;;;;;;;-1.28;75.06;98673.73;1774628;78;21203;-69
2021/01/29 01:30:54;;;;;;;4.22;1.35;;;;;;;-1.29;74.72;98675.95;1777225;78;21192;-69
2021/01/29 01:33:22;;;;;;;5.12;2.05;;;;;;;-1.33;73.94;98677.89;1744786;80;21180;-69
2021/01/29 01:36:13;;;;;;;3.67;1.35;;;;;;;-1.31;73.79;98670.88;1874103;74;22746;-66
2021/01/29 01:38:43;;;;;;;3.52;1.65;;;;;;;-1.36;74.94;98678.06;1843349;76;21429;-68
2021/01/29 01:41:11;;;;;;;6.87;1.52;;;;;;;-1.36;75.23;98679.36;1841929;77;21354;-68
2021/01/29 01:43:55;;;;;;;4.47;2.05;;;;;;;-1.35;75.33;98674.55;1873417;75;23096;-66
2021/01/29 01:46:41;;;;;;;5.42;2.22;;;;;;;-1.42;75.40;98668.56;1844305;75;21167;-69
2021/01/29 01:49:27;;;;;;;4.28;1.90;;;;;;;-1.41;75.34;98674.07;1838606;75;21157;-67
2021/01/29 01:52:06;;;;;;;5.70;1.98;;;;;;;-1.41;74.16;98674.07;1812203;77;22291;-66
2021/01/29 01:54:52;;;;;;;4.62;1.52;;;;;;;-1.43;73.17;98670.32;1808829;77;21222;-70
2021/01/29 01:57:20;;;;;;;3.62;1.45;;;;;;;-1.44;73.20;98677.67;1844333;75;21108;-70
2021/01/29 02:00:11;;;;;;;5.00;2.00;;;;;;;-1.39;72.83;98658.89;1873737;75;24198;-66
2021/01/29 02:02:46;;;;;;;;;;;;;;;-1.43;72.49;98660.44;1850782;76;21141;-67
2021/01/29 02:05:35;;;;;;;3.30;1.07;;;;;;;-1.44;71.92;98660.91;1849048;77;21358;-66
2021/01/29 02:08:19;;;;;;;5.05;1.25;;;;;;;-1.51;71.13;98662.19;1788200;78;21271;-65
2021/01/29 02:11:11;;;;;;;3.98;1.65;;;;;;;-1.51;71.25;98657.03;1872224;75;22769;-57
2021/01/29 02:13:53;;;;;;;4.17;1.70;;;;;;;-1.53;70.85;98655.83;1791560;77;21160;-57
2021/01/29 02:17:02;;;;;;;2.70;1.32;;;;;;;-1.54;69.49;98664.48;1845722;76;27254;-57
2021/01/29 02:20:04;;;;;;;5.03;2.05;;;;;;;-1.55;68.78;98667.95;1838789;77;21195;-56
2021/01/29 02:23:08;;;;;;;4.00;1.25;;;;;;;-1.60;67.95;98664.00;1846217;76;21517;-56
2021/01/29 02:26:48;;;;;;;2.87;1.25;;;;;;;-1.60;68.30;98665.28;1816614;77;21610;-57
2021/01/29 02:29:40;;;;;;;4.08;1.55;;;;;;;-1.64;66.72;98653.50;1755054;80;21244;-57
2021/01/29 02:33:04;;;;;;;8.25;1.82;;;;;;;-1.67;66.65;98658.36;1780083;78;21234;-57
2021/01/29 02:36:18;;;;;;;3.08;1.17;;;;;;;-1.68;66.11;98656.72;1846572;77;21188;-57
2021/01/29 02:53:38;;;;;;;4.58;1.40;;;;;;;-0.47;61.10;98651.66;1783949;77;23424;-57
2021/01/29 02:56:28;;;;;;;3.98;1.02;;;;;;;-0.47;60.98;98653.80;1749390;80;21550;-57
2021/01/29 02:59:44;;;;;;;3.55;1.32;;;;;;;-0.86;61.10;98655.78;1872545;75;22676;-56
2021/01/29 03:02:27;;;;;;;3.55;1.00;;;;;;;-1.06;61.08;98661.70;1840381;76;21144;-57
2021/01/29 03:05:05;;;;;;;5.10;1.20;;;;;;;-1.25;61.57;98664.98;1829542;77;21187;-57
2021/01/29 03:07:47;;;;;;;3.70;1.30;;;;;;;-1.40;61.64;98652.05;1805112;78;21183;-57
2021/01/29 03:10:44;;;;;;;4.40;1.75;;;;;;;-1.55;61.67;98654.24;1781823;79;21103;-57
2021/01/29 03:13:43;;;;;;;5.00;1.25;;;;;;;-1.72;62.08;98653.92;1799649;77;21176;-57
2021/01/29 03:16:40;;;;;;;2.98;1.02;;;;;;;-1.86;62.24;98653.44;1779379;79;21618;-57
2021/01/29 03:19:29;;;;;;;3.10;0.85;;;;;;;-1.96;62.61;98649.25;1772416;78;22162;-57
2021/01/29 03:22:32;;;;;;;4.70;1.50;;;;;;;-2.06;62.86;98646.81;1753075;78;21809;-57
2021/01/29 03:25:25;;;;;;;3.33;1.10;;;;;;;-2.12;62.87;98645.86;1804950;77;22290;-57
2021/01/29 03:28:18;;;;;;;3.67;1.25;;;;;;;-2.20;63.27;98645.02;1752975;78;21224;-57
2021/01/29 03:31:04;;;;;;;5.10;1.22;;;;;;;-2.21;63.38;98638.66;1789041;78;21614;-57
2021/01/29 03:33:58;;;;;;;3.70;1.37;;;;;;;-2.25;63.65;98632.38;1774001;78;22122;-58
2021/01/29 03:36:49;;;;;;;3.77;1.37;;;;;;;-2.22;63.73;98628.79;1796230;78;22086;-58
2021/01/29 03:39:37;;;;;;;4.62;1.60;;;;;;;-2.20;63.57;98630.84;1802693;77;21444;-57
2021/01/29 03:42:47;;;;;;;4.37;1.85;;;;;;;-2.21;63.57;98628.35;1782147;79;21191;-57
2021/01/29 03:45:47;;;;;;;3.83;1.65;;;;;;;-2.18;63.60;98633.34;1797753;78;21160;-58
2021/01/29 03:48:48;;;;;;;4.78;1.00;;;;;;;-2.21;63.75;98626.59;1749286;78;21216;-57
2021/01/29 03:52:08;;;;;;;4.05;1.30;;;;;;;-2.20;63.78;98636.00;1782762;78;21141;-58
2021/01/29 03:55:26;;;;;;;3.80;1.32;;;;;;;-2.21;63.73;98634.33;1775833;78;21539;-57
2021/01/29 03:58:36;;;;;;;5.20;2.20;;;;;;;-2.21;63.79;98632.22;1798851;78;21156;-56
2021/01/29 04:02:00;;;;;;;5.85;1.55;;;;;;;-2.21;63.80;98630.93;1738864;80;21128;-55
2021/01/29 04:05:10;;;;;;;4.78;1.72;;;;;;;-2.24;63.81;98630.63;1743469;79;21212;-55
2021/01/29 04:08:10;;;;;;;4.28;1.57;;;;;;;-2.26;63.67;98628.59;1783050;79;21207;-56
2021/01/29 04:10:58;;;;;;;4.83;1.30;;;;;;;-2.31;63.79;98637.05;1782946;79;21195;-56
2021/01/29 04:13:40;;;;;;;4.67;2.05;;;;;;;-2.36;63.94;98637.29;1752398;79;21717;-56
2021/01/29 04:16:14;;;;;;;4.42;1.77;;;;;;;-2.40;64.01;98634.52;1781704;78;21168;-58
2021/01/29 04:18:47;;;;;;;3.65;1.52;;;;;;;-2.40;64.10;98640.11;1754223;79;21223;-58
2021/01/29 04:21:29;;;;;;;3.83;1.30;;;;;;;-2.45;64.07;98637.34;1781637;79;21203;-57
2021/01/29 04:24:15;;;;;;;4.10;1.55;;;;;;;-2.46;64.06;98640.81;1782150;79;21164;-55
2021/01/29 04:27:12;;;;;;;5.10;2.20;;;;;;;-2.49;64.28;98641.02;1782043;79;21119;-55
2021/01/29 04:29:49;;;;;;;4.55;1.95;;;;;;;-2.46;64.22;98640.00;1781736;79;21143;-55
2021/01/29 04:43:32;;;;;;;5.60;2.40;;;;;;;-2.70;64.12;98628.00;1796393;77;22716;-55
2021/01/29 04:49:30;;;;;;;6.17;2.75;;;;;;;-2.79;64.16;98644.78;1806864;78;21417;-56
2021/01/29 04:52:26;;;;;;;6.33;2.62;;;;;;;-2.81;64.00;98638.86;1865090;74;22681;-56
2021/01/29 04:55:33;;;;;;;9.30;3.65;;;;;;;-2.90;63.86;98641.94;1849981;75;21147;-56
2021/01/29 04:58:21;;;;;;;7.20;3.25;;;;;;;-2.97;63.97;98641.42;1826579;75;21214;-56
2021/01/29 05:01:24;;;;;;;5.22;2.47;;;;;;;-2.98;64.07;98628.17;1857110;75;21183;-56
2021/01/29 05:04:46;;;;;;;7.75;2.92;;;;;;;-2.98;63.99;98624.31;1854481;75;21150;-58
2021/01/29 05:08:05;;;;;;;8.13;2.95;;;;;;;-2.95;63.91;98631.05;1852529;75;21191;-57
2021/01/29 05:11:22;;;;;;;5.78;2.85;;;;;;;-2.97;63.71;98640.60;1826349;75;21170;-56
2021/01/29 05:14:32;;;;;;;6.97;2.67;;;;;;;-2.97;63.68;98623.41;1816589;75;21982;-57
2021/01/29 05:17:41;;;;;;;7.53;3.47;;;;;;;-2.99;63.27;98612.38;1854790;75;21289;-56
2021/01/29 05:20:48;;;;;;;7.03;3.50;;;;;;;-3.00;63.25;98611.52;1850749;75;21195;-57
2021/01/29 05:23:44;;;;;;;10.60;2.98;;;;;;;-2.97;62.96;98623.88;1847196;75;21849;-57
2021/01/29 05:26:39;;;;;;;7.67;3.65;;;;;;;-2.97;62.81;98631.59;1815839;75;21512;-57
2021/01/29 05:29:32;;;;;;;14.05;3.52;;;;;;;-2.97;63.00;98619.55;1851732;75;21483;-56
2021/01/29 05:43:30;;;;;;;7.72;3.08;;;;;;;-2.91;62.28;98626.92;1802910;77;22742;-59
2021/01/29 05:46:33;;;;;;;10.63;3.75;;;;;;;-2.96;62.05;98613.47;1699879;81;21306;-58
2021/01/29 05:49:18;;;;;;;5.85;3.47;;;;;;;-2.97;62.54;98605.86;1701551;81;21249;-58
2021/01/29 05:52:26;;;;;;;10.82;4.60;;;;;;;-2.94;62.61;98606.95;1681423;83;21211;-55
2021/01/29 05:55:19;;;;;;;7.87;4.83;;;;;;;-2.91;62.66;98605.05;1682099;83;21154;-58
2021/01/29 05:58:38;;;;;;;8.38;3.87;;;;;;;-2.77;62.54;98601.76;1871901;74;24707;-58
2021/01/29 06:01:28;;;;;;;8.05;3.87;;;;;;;-2.79;62.48;98597.16;1812364;77;21175;-59
2021/01/29 06:04:36;;;;;;;10.50;4.65;;;;;;;-2.79;62.83;98604.88;1803419;77;21399;-57
2021/01/29 06:07:18;;;;;;;11.08;4.53;;;;;;;-2.77;62.80;98598.33;1802607;77;21472;-56
2021/01/29 06:10:34;;;;;;;15.13;6.12;;;;;;;-2.72;62.77;98601.05;1783927;78;21204;-58
2021/01/29 06:13:43;;;;;;;8.30;4.83;;;;;;;-2.65;62.55;98602.84;1778448;78;21425;-58
2021/01/29 06:16:25;;;;;;;36.68;5.95;;;;;;;-2.57;62.67;98592.10;1760445;78;21203;-57
2021/01/29 06:19:30;;;;;;;15.80;6.33;;;;;;;-2.53;62.71;98607.31;1784127;78;21601;-57
2021/01/29 06:22:03;;;;;;;10.10;4.28;;;;;;;-2.49;63.00;98585.64;1765091;78;21215;-57
2021/01/29 06:24:55;;;;;;;10.72;6.03;;;;;;;-2.43;62.95;98583.17;1754672;78;21759;-57
2021/01/29 06:28:09;;;;;;;12.20;6.17;;;;;;;-2.42;63.13;98579.69;1773012;77;21658;-57
2021/01/29 06:31:08;;;;;;;9.18;5.67;;;;;;;-2.41;63.71;98574.89;1776299;79;21202;-58
2021/01/29 06:34:26;;;;;;;12.82;6.53;;;;;;;-2.43;64.07;98564.67;1737255;78;21247;-58
2021/01/29 06:37:12;;;;;;;;;;;;;;;-2.41;64.24;98560.73;1789867;78;21561;-57
2021/01/29 06:40:13;;;;;;;9.03;4.83;;;;;;;-2.47;64.67;98560.63;1786262;78;20472;-58
2021/01/29 06:43:07;;;;;;;12.60;6.37;;;;;;;-2.56;65.40;98564.98;1786145;78;21718;-58
2021/01/29 06:46:33;;;;;;;14.38;7.33;;;;;;;-2.63;66.76;98581.22;1787249;79;21191;-58
2021/01/29 06:49:13;;;;;;;16.97;9.10;;;;;;;-2.67;67.17;98592.63;1787694;78;21219;-57
2021/01/29 06:51:54;;;;;;;11.12;6.50;;;;;;;-2.78;70.00;98605.23;1787194;79;21223;-57
2021/01/29 06:55:07;;;;;;;13.43;6.45;;;;;;;-2.83;70.86;98591.31;1784744;78;21707;-57
2021/01/29 06:58:04;;;;;;;11.83;6.55;;;;;;;-2.88;72.25;98584.30;1800308;77;21212;-57
2021/01/29 07:01:02;;;;;;;12.35;6.80;;;;;;;-2.90;72.57;98576.30;1800413;77;21257;-57
2021/01/29 07:04:15;;;;;;;15.75;7.55;;;;;;;-2.91;72.97;98579.31;1785074;78;21246;-58
2021/01/29 07:07:10;;;;;;;12.98;6.00;;;;;;;-2.88;72.99;98574.00;1795862;77;21227;-55
2021/01/29 07:10:21;;;;;;;13.03;7.42;;;;;;;-2.88;72.30;98580.44;1800093;77;21391;-55
2021/01/29 07:13:13;;;;;;;12.60;6.40;;;;;;;-2.88;71.76;98561.13;1779910;78;21604;-57
2021/01/29 07:16:01;;;;;;;15.03;7.17;;;;;;;-2.85;71.25;98549.39;1785943;78;21192;-58
2021/01/29 07:19:10;;;;;;;11.00;5.65;;;;;;;-2.79;70.58;98561.12;1787994;78;21702;-56
2021/01/29 07:22:04;;;;;;;11.83;6.12;;;;;;;-2.74;70.14;98549.26;1756790;79;21250;-57
2021/01/29 07:25:07;;;;;;;12.33;6.42;;;;;;;-2.71;69.94;98548.62;1786424;78;21201;-56
2021/01/29 07:27:47;;;;;;;13.70;6.70;;;;;;;-2.67;69.48;98548.03;1748988;78;21167;-57
2021/01/29 07:30:47;;;;;;;13.28;6.80;;;;;;;-2.62;69.25;98543.45;1787726;78;21469;-59
2021/01/29 07:33:48;;;;;;;11.65;6.03;;;;;;;-2.58;69.18;98546.22;1787110;79;21729;-55
2021/01/29 07:36:23;;;;;;;16.37;7.75;;;;;;;-2.53;68.83;98545.97;1758402;79;21633;-56
2021/01/29 07:39:36;;;;;;;13.28;7.55;;;;;;;-2.50;68.70;98541.94;1786880;79;21212;-57
2021/01/29 07:42:41;;;;;;;12.85;6.58;;;;;;;-2.40;68.79;98532.77;1786292;79;21220;-59
2021/01/29 07:45:36;;;;;;;12.80;6.72;;;;;;;-2.30;68.57;98534.38;1788165;78;21182;-56
2021/01/29 07:48:50;;;;;;;14.80;6.80;;;;;;;-2.22;68.17;98540.36;1800619;77;21262;-56
2021/01/29 07:51:51;;;;;;;15.30;7.25;;;;;;;-2.19;67.87;98531.99;1784965;77;21732;-57
2021/01/29 07:54:42;;;;;;;12.68;6.05;;;;;;;-2.16;68.94;98533.11;1772485;78;21186;-55
2021/01/29 07:57:50;;;;;;;13.25;7.50;;;;;;;-2.11;69.01;98530.28;1771032;78;21203;-57
2021/01/29 08:00:31;;;;;;;13.93;7.72;;;;;;;-2.06;68.91;98521.35;1753062;80;21203;-55
2021/01/29 08:03:32;;;;;;;14.63;6.97;;;;;;;-2.04;69.32;98526.42;1723671;81;21310;-57
2021/01/29 08:06:23;;;;;;;12.30;7.35;;;;;;;-1.99;69.46;98527.45;1749843;80;21242;-55
2021/01/29 08:08:58;;;;;;;13.98;7.12;;;;;;;-1.93;69.39;98516.79;1769134;78;21196;-55
2021/01/29 08:11:27;;;;;;;9.60;5.72;;;;;;;-1.85;69.36;98526.16;1742252;81;21215;-56
2021/01/29 08:14:10;;;;;;;15.38;9.03;;;;;;;-1.82;70.03;98518.73;1748932;81;21228;-55
2021/01/29 08:17:14;;;;;;;10.63;6.30;;;;;;;-1.79;70.28;98515.50;1720090;80;21193;-55
2021/01/29 08:20:00;;;;;;;13.15;6.97;;;;;;;-1.78;70.44;98516.32;1693595;82;21274;-56
2021/01/29 08:22:45;;;;;;;10.85;7.10;;;;;;;-1.78;70.43;98508.14;1740287;81;21185;-56
2021/01/29 08:25:40;;;;;;;;;;;;;;;-1.77;70.73;98511.55;1718150;81;21211;-57
2021/01/29 08:29:02;;;;;;;12.85;6.95;;;;;;;-1.76;71.23;98509.34;1741483;81;20296;-55
2021/01/29 08:31:51;;;;;;;12.65;7.75;;;;;;;-1.81;71.43;98514.77;1741990;80;21315;-55
2021/01/29 08:35:01;;;;;;;11.93;7.35;;;;;;;-1.80;72.02;98500.13;1740971;81;21215;-55
2021/01/29 08:38:00;;;;;;;15.53;7.47;;;;;;;-1.76;73.03;98503.72;1743501;81;21231;-55
2021/01/29 08:41:14;;;;;;;12.28;7.17;;;;;;;-1.68;72.77;98503.28;1717149;81;21843;-55
2021/01/29 08:44:16;;;;;;;14.35;7.17;;;;;;;-1.67;72.99;98505.38;1742952;80;21167;-56
2021/01/29 08:47:08;;;;;;;13.78;7.42;;;;;;;-1.65;73.18;98501.78;1742322;81;21430;-55
2021/01/29 08:50:00;;;;;;;13.13;5.83;;;;;;;-1.66;73.22;98505.73;1745681;81;22528;-55
2021/01/29 08:52:38;;;;;;;13.90;8.35;;;;;;;-1.65;73.30;98497.91;1745301;81;21215;-55
2021/01/29 08:55:50;;;;;;;13.35;7.10;;;;;;;-1.59;73.34;98501.89;1728845;81;21191;-56
2021/01/29 08:58:41;;;;;;;10.72;5.97;;;;;;;-1.55;73.79;98493.03;1739853;79;21235;-56
2021/01/29 09:01:25;;;;;;;12.35;5.97;;;;;;;-1.54;73.78;98497.28;1778624;78;21242;-56
2021/01/29 09:04:05;;;;;;;13.95;7.90;;;;;;;-1.54;74.17;98500.68;1776495;79;21175;-55
2021/01/29 09:06:41;;;;;;;13.75;8.08;;;;;;;-1.52;74.41;98505.28;1756366;79;21206;-55
2021/01/29 09:09:15;;;;;;;17.32;6.53;;;;;;;-1.43;74.70;98493.59;1778937;78;21190;-56
2021/01/29 09:11:53;;;;;;;;;;;;;;;-1.33;74.26;98491.25;1758730;79;21749;-56
2021/01/29 09:14:35;;;;;;;12.03;6.97;;;;;;;-1.25;74.25;98493.38;1724684;79;21063;-55
2021/01/29 09:17:14;;;;;;;8.90;5.22;;;;;;;-1.24;74.27;98489.88;1784150;78;21246;-55
2021/01/29 09:19:44;;;;;;;13.40;6.40;;;;;;;-1.21;73.72;98488.38;1799524;77;21171;-56
2021/01/29 09:22:37;;;;;;;12.82;6.62;;;;;;;-1.17;73.44;98482.94;1797904;77;21237;-56
2021/01/29 09:25:33;;;;;;;10.68;6.70;;;;;;;-1.18;73.79;98489.48;1744667;79;21195;-57
2021/01/29 09:28:17;;;;;;;15.60;7.92;;;;;;;-1.14;73.69;98492.26;1769189;78;21199;-56
2021/01/29 09:31:06;;;;;;;11.18;6.53;;;;;;;-1.10;74.24;98496.30;1804193;77;21208;-58
2021/01/29 09:33:45;;;;;;;13.25;7.42;;;;;;;-1.07;73.77;98483.20;1802475;78;21836;-57
2021/01/29 09:36:24;;;;;;;10.70;6.55;;;;;;;-1.05;74.82;98496.02;1739364;77;21203;-56
2021/01/29 09:39:09;;;;;;;10.45;5.60;;;;;;;-1.04;74.43;98489.91;1781891;78;21157;-55
2021/01/29 09:41:58;;;;;;;11.75;6.78;;;;;;;-1.01;74.06;98491.86;1779785;78;21191;-57
2021/01/29 09:44:47;;;;;;;11.50;6.53;;;;;;;-0.97;74.38;98489.91;1773728;78;21230;-56
2021/01/29 09:47:21;;;;;;;12.47;6.35;;;;;;;-0.91;74.53;98492.55;1780954;78;21231;-56
2021/01/29 09:49:50;;;;;;;9.23;5.90;;;;;;;-0.87;74.82;98494.86;1772029;80;21176;-56
2021/01/29 09:52:55;;;;;;;11.33;6.97;;;;;;;-0.76;74.47;98492.87;1777319;78;21197;-56
2021/01/29 09:55:48;;;;;;;9.70;6.10;;;;;;;-0.68;74.30;98501.44;1779891;78;21251;-56
2021/01/29 09:58:33;;;;;;;11.28;6.55;;;;;;;-0.59;73.66;98496.52;1800180;77;21499;-55
2021/01/29 10:01:11;;;;;;;10.85;5.90;;;;;;;-0.51;73.31;98500.34;1788046;78;21663;-55
2021/01/29 10:04:29;;;;;;;10.00;5.97;;;;;;;-0.40;73.39;98495.32;1805180;77;21191;-57
2021/01/29 10:06:59;;;;;;;13.28;6.90;;;;;;;-0.32;72.78;98495.66;1787208;78;21223;-57
2021/01/29 10:09:40;;;;;;;14.68;7.20;;;;;;;-0.26;72.24;98490.06;1806813;77;21258;-57
2021/01/29 10:12:19;;;;;;;12.85;6.83;;;;;;;-0.19;72.32;98483.55;1789521;78;21182;-56
2021/01/29 10:15:04;;;;;;;11.65;7.33;;;;;;;-0.07;71.96;98484.97;1792080;78;21190;-55
2021/01/29 10:17:37;;;;;;;13.00;8.00;;;;;;;0.07;71.67;98468.07;1808031;77;21261;-57
2021/01/29 10:20:08;;;;;;;11.85;6.78;;;;;;;0.21;71.25;98465.02;1785837;78;21179;-56
2021/01/29 10:23:14;;;;;;;11.83;6.22;;;;;;;0.27;70.76;98460.70;1807225;77;21261;-56
2021/01/29 10:25:46;;;;;;;14.87;7.85;;;;;;;0.36;70.48;98460.08;1808610;77;21626;-50
2021/01/29 10:28:29;;;;;;;13.35;7.62;;;;;;;0.46;70.45;98462.87;1793202;78;21474;-56
2021/01/29 10:31:02;;;;;;;12.05;6.35;;;;;;;0.60;69.81;98460.61;1810887;77;21151;-56
2021/01/29 10:33:34;;;;;;;12.37;7.92;;;;;;;0.78;69.32;98450.26;1812118;78;21158;-57
2021/01/29 10:36:22;;;;;;;12.88;7.20;;;;;;;0.96;68.92;98452.02;1768904;78;21331;-56
2021/01/29 10:39:04;;;;;;;12.03;7.03;;;;;;;1.13;68.31;98449.95;1767316;78;21214;-56
2021/01/29 10:41:55;;;;;;;11.57;6.28;;;;;;;1.29;68.17;98446.17;1790387;78;21174;-57
2021/01/29 10:44:26;;;;;;;11.78;6.92;;;;;;;1.51;66.96;98447.65;1783645;79;21514;-57
2021/01/29 10:47:25;;;;;;;11.55;6.78;;;;;;;1.65;66.96;98434.50;1812182;77;21504;-56
2021/01/29 10:50:17;;;;;;;12.20;5.92;;;;;;;1.78;65.87;98435.69;1792719;78;21246;-57
2021/01/29 10:53:15;;;;;;;12.75;6.87;;;;;;;1.79;65.37;98434.28;1810247;78;21194;-57
2021/01/29 10:55:59;;;;;;;11.80;6.50;;;;;;;1.77;65.31;98428.39;1811172;77;21195;-58
2021/01/29 11:02:14;;;;;;;12.33;7.05;;;;;;;1.80;63.43;98430.77;1744935;79;21585;-55
2021/01/29 11:04:46;;;;;;;13.00;7.03;;;;;;;1.69;62.27;98439.80;1743477;79;21655;-54
2021/01/29 11:07:30;;;;;;;12.35;7.72;;;;;;;1.66;63.52;98441.33;1742562;79;21273;-58
2021/01/29 11:10:30;;;;;;;14.58;7.72;;;;;;;1.65;63.63;98426.25;1765876;79;21217;-54
2021/01/29 11:13:18;;;;;;;14.35;8.45;;;;;;;1.71;63.43;98441.80;1765035;79;21194;-57
2021/01/29 11:15:58;;;;;;;13.75;7.67;;;;;;;1.72;63.19;98433.09;1766925;79;21186;-56
2021/01/29 11:18:30;;;;;;;13.22;7.45;;;;;;;1.75;62.96;98433.33;1737502;79;21277;-56
2021/01/29 11:21:37;;;;;;;12.40;6.35;;;;;;;1.77;62.69;98450.91;1779604;78;21190;-55
2021/01/29 11:24:34;;;;;;;10.40;6.33;;;;;;;1.72;59.58;98429.69;1777159;78;21566;-57
2021/01/29 11:27:22;;;;;;;12.70;7.00;;;;;;;1.58;59.72;98436.73;1779661;78;21238;-57
2021/01/29 11:30:11;;;;;;;16.05;6.40;;;;;;;1.51;60.55;98456.72;1768569;79;21147;-56
2021/01/29 11:32:41;;;;;;;17.07;7.95;;;;;;;1.42;59.38;98433.61;1746924;79;21261;-56
2021/01/29 11:35:52;;;;;;;11.63;7.05;;;;;;;1.39;59.98;98433.83;1778461;78;21191;-56
2021/01/29 11:38:30;;;;;;;12.75;6.40;;;;;;;1.40;60.43;98438.08;1741939;78;21512;-56
2021/01/29 11:41:37;;;;;;;10.18;6.42;;;;;;;1.39;59.11;98444.19;1778427;78;21187;-56
2021/01/29 11:44:28;;;;;;;20.08;7.50;;;;;;;1.40;59.65;98441.97;1728845;79;21743;-56
2021/01/29 11:47:07;;;;;;;11.48;6.42;;;;;;;1.39;58.21;98442.89;1779080;78;21485;-55
2021/01/29 11:49:38;;;;;;;10.65;5.67;;;;;;;1.37;57.87;98449.48;1775366;79;21668;-56
2021/01/29 11:52:19;;;;;;;14.53;6.70;;;;;;;1.38;55.44;98458.08;1779250;79;21203;-57
2021/01/29 11:55:20;;;;;;;10.72;5.17;;;;;;;1.34;54.16;98443.70;1778894;78;21830;-56
2021/01/29 11:58:16;;;;;;;11.75;5.50;;;;;;;1.29;53.64;98445.33;1774770;78;22576;-54
2021/01/29 12:01:02;;;;;;;;;;;;;;;1.32;53.95;98445.59;1741561;80;21978;-55
2021/01/29 12:03:50;;;;;;;9.60;5.05;;;;;;;1.17;52.57;98452.22;1767810;79;20397;-58
2021/01/29 12:06:40;;;;;;;11.50;5.83;;;;;;;1.02;51.75;98467.10;1714934;80;21198;-57
2021/01/29 12:09:21;;;;;;;10.28;4.87;;;;;;;0.96;51.48;98451.17;1698901;80;21634;-58
2021/01/29 12:12:13;;;;;;;11.20;5.47;;;;;;;0.86;52.14;98454.43;1755162;79;21190;-57
2021/01/29 12:15:09;;;;;;;12.20;5.62;;;;;;;0.80;51.90;98449.67;1769496;79;21389;-55
2021/01/29 12:17:36;;;;;;;10.28;5.80;;;;;;;0.76;52.10;98457.31;1767170;79;21128;-56
2021/01/29 12:20:09;;;;;;;9.93;6.22;;;;;;;0.74;52.67;98457.89;1737259;79;21207;-55
2021/01/29 12:22:52;;;;;;;12.13;5.40;;;;;;;0.78;52.94;98448.14;1769195;79;21179;-56
2021/01/29 12:25:49;;;;;;;7.72;4.85;;;;;;;0.81;53.10;98457.81;1768646;79;21736;-55
2021/01/29 12:28:54;;;;;;;9.58;5.10;;;;;;;0.86;52.99;98454.43;1768571;80;21603;-57
2021/01/29 12:31:48;;;;;;;9.78;5.95;;;;;;;0.96;52.94;98444.70;1736358;80;21215;-56
2021/01/29 12:34:40;;;;;;;11.55;4.97;;;;;;;1.01;52.88;98459.44;1749157;79;21245;-57
2021/01/29 12:37:24;;;;;;;10.40;5.80;;;;;;;1.06;53.18;98458.19;1768133;79;21223;-57
2021/01/29 12:39:54;;;;;;;13.50;6.08;;;;;;;1.13;53.11;98463.76;1733735;81;21198;-56
2021/01/29 12:42:41;;;;;;;10.43;5.37;;;;;;;1.20;52.73;98461.08;1753413;80;21474;-56
2021/01/29 12:45:31;;;;;;;11.57;6.58;;;;;;;1.26;53.02;98451.58;1723189;80;21187;-57
2021/01/29 12:48:24;;;;;;;15.40;6.40;;;;;;;1.34;53.46;98455.36;1757941;79;21243;-56
2021/01/29 12:51:12;;;;;;;11.83;6.85;;;;;;;1.38;52.93;98450.30;1769066;79;21198;-56
2021/01/29 12:54:04;;;;;;;12.05;5.97;;;;;;;1.44;53.06;98453.75;1750212;79;21230;-58
2021/01/29 12:56:40;;;;;;;12.93;6.15;;;;;;;1.67;53.14;98450.77;1769208;79;21423;-57
2021/01/29 12:59:09;;;;;;;11.60;6.45;;;;;;;2.54;51.15;98451.08;1769628;79;21593;-59
2021/01/29 13:01:56;;;;;;;13.05;6.80;;;;;;;3.51;49.13;98438.63;1705403;79;21222;-57
2021/01/29 13:04:53;;;;;;;13.17;6.67;;;;;;;4.25;47.36;98448.11;1779815;78;21266;-56
2021/01/29 13:07:27;;;;;;;11.43;6.10;;;;;;;4.98;46.29;98444.84;1768570;79;21172;-56
2021/01/29 13:10:20;;;;;;;10.80;6.47;;;;;;;5.69;44.63;98441.14;1770749;79;25650;-57
2021/01/29 13:13:04;;;;;;;11.63;6.62;;;;;;;6.25;43.65;98439.52;1769571;79;21167;-57
2021/01/29 13:15:54;;;;;;;12.33;6.22;;;;;;;6.68;43.08;98438.11;1771650;79;21114;-57
2021/01/29 13:18:44;;;;;;;11.55;6.30;;;;;;;7.14;42.82;98440.71;1750025;80;21206;-56
2021/01/29 13:21:24;;;;;;;13.48;6.87;;;;;;;7.73;41.58;98441.55;1749884;80;21827;-56
2021/01/29 13:23:51;;;;;;;13.83;6.75;;;;;;;8.08;40.83;98435.89;1703318;80;21219;-57
2021/01/29 13:26:42;;;;;;;11.90;6.00;;;;;;;8.39;39.76;98436.23;1749752;80;21178;-57
2021/01/29 13:29:21;;;;;;;11.33;6.15;;;;;;;8.47;38.83;98442.02;1728242;80;21199;-56
2021/01/29 13:31:48;;;;;;;13.88;7.47;;;;;;;8.46;39.10;98441.21;1723911;79;21687;-58
2021/01/29 13:34:29;;;;;;;11.28;6.80;;;;;;;8.47;38.20;98445.95;1737127;81;21187;-57
2021/01/29 13:37:06;;;;;;;10.58;5.85;;;;;;;8.37;38.68;98442.10;1763484;79;23389;-57
2021/01/29 13:39:38;;;;;;;12.25;7.35;;;;;;;8.40;38.94;98442.30;1750995;80;21438;-56
2021/01/29 13:42:28;;;;;;;13.15;7.17;;;;;;;8.48;39.11;98443.67;1756516;80;21211;-57
2021/01/29 13:45:07;;;;;;;13.50;6.95;;;;;;;8.62;38.96;98440.94;1766895;79;21163;-56
2021/01/29 13:47:48;;;;;;;14.87;8.55;;;;;;;8.52;38.80;98450.23;1767490;79;21198;-57
2021/01/29 13:50:31;;;;;;;12.80;7.08;;;;;;;8.51;39.04;98452.05;1767346;79;21264;-57
2021/01/29 13:53:01;;;;;;;13.28;7.42;;;;;;;8.63;39.52;98453.08;1766952;79;21274;-57